createdAt,value
2019-05-15T00:00:15.192Z,5.13
2019-05-15T00:02:42.698Z,5.07
2019-05-15T00:05:10.158Z,5.10
2019-05-15T00:07:39.201Z,5.33
2019-05-15T00:10:05.091Z,4.83
2019-05-15T00:12:32.546Z,5.43
2019-05-15T00:15:00.029Z,4.87
2019-05-15T00:17:28.276Z,5.13
2019-05-15T00:19:54.970Z,4.80
2019-05-15T00:22:22.433Z,5.47
2019-05-15T00:24:49.884Z,4.90
2019-05-15T00:27:17.355Z,5.20
2019-05-15T00:29:44.817Z,5.07
2019-05-15T00:32:12.302Z,5.73
2019-05-15T00:34:39.775Z,5.10
2019-05-15T00:37:09.046Z,5.20
2019-05-15T00:39:34.661Z,5.30
2019-05-15T00:42:02.108Z,4.93
2019-05-15T00:44:29.507Z,5.43
2019-05-15T00:46:58.239Z,5.87
2019-05-15T00:49:24.360Z,5.77
2019-05-15T00:51:51.779Z,5.83
2019-05-15T00:54:19.365Z,6.07
2019-05-15T00:56:48.441Z,5.23
2019-05-15T00:59:25.059Z,5.70
2019-05-15T01:01:41.508Z,5.40
2019-05-15T01:04:08.906Z,5.80
2019-05-15T01:06:38.753Z,5.60
2019-05-15T01:09:03.759Z,5.63
2019-05-15T01:11:31.173Z,6.03
2019-05-15T01:13:58.683Z,5.47
2019-05-15T01:16:28.123Z,5.87
2019-05-15T01:18:53.472Z,6.13
2019-05-15T01:21:20.900Z,6.07
2019-05-15T01:23:48.522Z,6.07
2019-05-15T01:26:15.731Z,5.83
2019-05-15T01:28:43.152Z,6.23
2019-05-15T01:31:10.572Z,6.50
2019-05-15T01:33:39.086Z,6.00
2019-05-15T01:36:05.406Z,5.80
2019-05-15T01:38:32.852Z,6.00
2019-05-15T01:41:00.253Z,5.87
2019-05-15T01:43:29.102Z,6.20
2019-05-15T01:45:55.097Z,6.23
2019-05-15T01:48:22.509Z,6.17
2019-05-15T01:50:49.914Z,7.03
2019-05-15T01:53:18.679Z,6.50
2019-05-15T01:55:44.754Z,6.10
2019-05-15T01:58:12.534Z,6.13
2019-05-15T02:00:39.959Z,6.50
2019-05-15T02:03:09.432Z,6.40
2019-05-15T02:05:34.792Z,6.17
2019-05-15T02:08:02.211Z,5.83
2019-05-15T02:10:29.635Z,5.93
2019-05-15T02:12:58.799Z,6.10
2019-05-15T02:15:24.466Z,6.60
2019-05-15T02:17:51.922Z,6.60
2019-05-15T02:20:19.328Z,6.30
2019-05-15T02:22:48.481Z,6.50
2019-05-15T02:25:14.170Z,7.30
2019-05-15T02:27:41.597Z,6.27
2019-05-15T02:30:22.306Z,6.80
2019-05-15T02:32:39.551Z,6.03
2019-05-15T02:35:03.859Z,6.80
2019-05-15T02:37:31.276Z,6.37
2019-05-15T02:39:59.025Z,6.20
2019-05-15T02:42:28.766Z,6.57
2019-05-15T02:44:53.567Z,6.50
2019-05-15T02:47:21.009Z,6.30
2019-05-15T02:49:48.755Z,6.80
2019-05-15T02:52:15.843Z,6.30
2019-05-15T02:54:43.269Z,6.20
2019-05-15T02:57:10.667Z,6.63
2019-05-15T02:59:39.641Z,6.90
2019-05-15T03:02:05.520Z,7.17
2019-05-15T03:04:32.947Z,7.37
2019-05-15T03:07:00.572Z,7.90
2019-05-15T03:09:29.845Z,7.70
2019-05-15T03:11:55.206Z,7.37
2019-05-15T03:14:22.645Z,7.90
2019-05-15T03:16:50.071Z,8.40
2019-05-15T03:19:19.246Z,7.20
2019-05-15T03:21:44.915Z,7.50
2019-05-15T03:24:12.354Z,8.37
2019-05-15T03:26:39.784Z,8.43
2019-05-15T03:29:09.862Z,8.07
2019-05-15T03:31:50.573Z,8.53
2019-05-15T03:34:03.599Z,8.63
2019-05-15T03:36:31.541Z,8.07
2019-05-15T03:38:58.708Z,9.00
2019-05-15T03:41:24.392Z,8.40
2019-05-15T03:43:51.822Z,8.60
2019-05-15T03:46:20.177Z,8.30
2019-05-15T03:48:48.762Z,9.27
2019-05-15T03:51:14.081Z,8.93
2019-05-15T03:53:41.518Z,8.50
2019-05-15T03:56:09.656Z,9.10
2019-05-15T03:58:39.734Z,9.60
2019-05-15T04:01:03.787Z,8.37
2019-05-15T04:03:34.273Z,9.17
2019-05-15T04:06:01.669Z,9.57
2019-05-15T04:08:29.965Z,8.80
2019-05-15T04:10:59.384Z,9.23
2019-05-15T04:13:23.924Z,9.37
2019-05-15T04:15:51.361Z,10.40
2019-05-15T04:18:19.875Z,9.13
2019-05-15T04:20:49.178Z,9.17
2019-05-15T04:23:13.652Z,10.17
2019-05-15T04:25:41.077Z,9.87
2019-05-15T04:28:09.598Z,8.90
2019-05-15T04:30:38.912Z,9.60
2019-05-15T04:33:03.405Z,10.40
2019-05-15T04:35:30.811Z,9.43
2019-05-15T04:37:59.779Z,9.90
2019-05-15T04:40:25.685Z,9.50
2019-05-15T04:42:53.105Z,9.13
2019-05-15T04:45:20.547Z,9.70
2019-05-15T04:47:49.901Z,9.73
2019-05-15T04:50:19.309Z,9.97
2019-05-15T04:52:44.925Z,9.97
2019-05-15T04:55:12.347Z,10.20
2019-05-15T04:57:40.662Z,10.03
2019-05-15T05:00:09.593Z,9.90
2019-05-15T05:02:34.632Z,10.43
2019-05-15T05:05:02.058Z,10.00
2019-05-15T05:07:29.685Z,10.90
2019-05-15T05:09:59.484Z,10.93
2019-05-15T05:12:24.339Z,8.37
2019-05-15T05:14:51.776Z,9.17
2019-05-15T05:17:19.641Z,9.20
2019-05-15T05:19:47.858Z,8.57
2019-05-15T05:22:14.082Z,8.50
2019-05-15T05:24:41.518Z,11.40
2019-05-15T05:27:08.920Z,8.17
2019-05-15T05:29:38.473Z,7.97
2019-05-15T05:32:03.761Z,7.97
2019-05-15T05:34:31.197Z,7.43
2019-05-15T05:36:59.031Z,7.90
2019-05-15T05:39:26.046Z,7.33
2019-05-15T05:41:53.461Z,7.60
2019-05-15T05:44:20.895Z,7.20
2019-05-15T05:46:48.785Z,7.67
2019-05-15T05:49:15.765Z,7.80
2019-05-15T05:51:43.178Z,8.33
2019-05-15T05:54:10.595Z,7.13
2019-05-15T05:56:38.065Z,7.80
2019-05-15T05:59:05.442Z,6.47
2019-05-15T06:01:35.954Z,7.37
2019-05-15T06:04:00.298Z,8.10
2019-05-15T06:06:29.231Z,7.63
2019-05-15T06:08:55.156Z,7.60
2019-05-15T06:11:22.571Z,8.10
2019-05-15T06:13:52.490Z,7.13
2019-05-15T06:16:18.992Z,7.50
2019-05-15T06:18:44.845Z,7.10
2019-05-15T06:21:13.266Z,7.00
2019-05-15T06:23:45.123Z,7.87
2019-05-15T06:26:09.443Z,8.60
2019-05-15T06:28:35.508Z,7.87
2019-05-15T06:31:02.953Z,8.00
2019-05-15T06:33:30.421Z,7.23
2019-05-15T06:35:59.243Z,7.23
2019-05-15T06:38:25.223Z,8.00
2019-05-15T06:40:52.635Z,6.93
2019-05-15T06:43:20.096Z,7.17
2019-05-15T06:45:48.706Z,7.87
2019-05-15T06:48:14.939Z,7.40
2019-05-15T06:50:42.363Z,7.70
2019-05-15T06:53:10.771Z,7.90
2019-05-15T06:55:38.901Z,7.27
2019-05-15T06:58:04.654Z,7.27
2019-05-15T07:00:32.106Z,8.20
2019-05-15T07:02:59.496Z,6.97
2019-05-15T07:05:29.450Z,6.30
2019-05-15T07:07:54.321Z,6.70
2019-05-15T07:10:21.754Z,6.90
2019-05-15T07:12:51.457Z,6.87
2019-05-15T07:15:18.305Z,5.93
2019-05-15T07:17:44.031Z,6.87
2019-05-15T07:20:11.439Z,6.27
2019-05-15T07:22:40.224Z,6.50
2019-05-15T07:25:08.879Z,7.10
2019-05-15T07:27:35.046Z,7.00
2019-05-15T07:30:02.470Z,7.13
2019-05-15T07:32:29.900Z,6.87
2019-05-15T07:34:57.924Z,7.60
2019-05-15T07:37:24.688Z,6.20
2019-05-15T07:39:52.098Z,7.27
2019-05-15T07:42:19.524Z,6.70
2019-05-15T07:44:48.170Z,6.10
2019-05-15T07:47:14.376Z,6.37
2019-05-15T07:49:41.785Z,6.40
2019-05-15T07:52:09.231Z,5.77
2019-05-15T07:54:38.300Z,6.53
2019-05-15T07:57:04.050Z,6.10
2019-05-15T07:59:31.453Z,6.03
2019-05-15T08:01:58.881Z,5.57
2019-05-15T08:04:30.584Z,6.77
2019-05-15T08:06:53.748Z,5.03
2019-05-15T08:09:21.168Z,5.13
2019-05-15T08:11:48.843Z,5.97
2019-05-15T08:14:18.344Z,4.80
2019-05-15T08:16:43.419Z,3.80
2019-05-15T08:19:10.825Z,4.80
2019-05-15T08:21:38.589Z,4.20
2019-05-15T08:24:08.268Z,3.90
2019-05-15T08:26:33.092Z,3.80
2019-05-15T08:29:00.526Z,3.47
2019-05-15T08:31:28.794Z,3.30
2019-05-15T08:34:11.676Z,3.70
2019-05-15T08:36:22.774Z,3.50
2019-05-15T08:38:50.183Z,3.40
2019-05-15T08:41:18.588Z,2.70
2019-05-15T08:43:45.016Z,2.87
2019-05-15T08:46:12.422Z,3.47
2019-05-15T08:48:39.829Z,3.40
2019-05-15T08:51:08.691Z,3.93
2019-05-15T08:53:34.653Z,4.13
2019-05-15T08:56:02.063Z,4.00
2019-05-15T08:58:29.473Z,3.60
2019-05-15T09:00:58.649Z,4.30
2019-05-15T09:03:24.330Z,4.10
2019-05-15T09:05:51.739Z,3.40
2019-05-15T09:08:19.806Z,3.80
2019-05-15T09:10:46.574Z,3.10
2019-05-15T09:13:14.030Z,3.57
2019-05-15T09:15:41.406Z,4.87
2019-05-15T09:18:15.599Z,3.10
2019-05-15T09:20:38.317Z,3.30
2019-05-15T09:23:03.657Z,8.53
2019-05-15T09:25:31.113Z,4.27
2019-05-15T09:27:58.501Z,3.00
2019-05-15T09:30:28.485Z,2.97
2019-05-15T09:32:53.407Z,3.20
2019-05-15T09:35:20.836Z,3.40
2019-05-15T09:37:48.803Z,3.70
2019-05-15T09:40:18.415Z,3.47
2019-05-15T09:42:43.081Z,3.67
2019-05-15T09:45:10.524Z,3.20
2019-05-15T09:47:39.721Z,3.53
2019-05-15T09:50:09.108Z,3.30
2019-05-15T09:52:38.769Z,3.43
2019-05-15T09:55:08.583Z,3.73
2019-05-15T09:57:34.065Z,3.60
2019-05-15T10:00:01.500Z,3.70
2019-05-15T10:02:28.885Z,3.90
2019-05-15T10:05:05.880Z,3.80
2019-05-15T10:07:23.777Z,4.27
2019-05-15T10:09:52.477Z,3.90
2019-05-15T10:12:18.675Z,3.60
2019-05-15T10:14:49.155Z,3.10
2019-05-15T10:17:13.596Z,3.90
2019-05-15T10:19:40.999Z,4.10
2019-05-15T10:22:09.661Z,5.60
2019-05-15T10:24:35.835Z,7.10
2019-05-15T10:27:03.266Z,5.73
2019-05-15T10:29:30.676Z,4.00
2019-05-15T10:31:58.083Z,3.83
2019-05-15T10:34:25.546Z,4.43
2019-05-15T10:36:52.945Z,6.17
2019-05-15T10:39:20.399Z,5.20
2019-05-15T10:41:48.301Z,4.73
2019-05-15T10:44:15.213Z,5.60
2019-05-15T10:46:42.614Z,4.83
2019-05-15T10:49:10.215Z,4.70
2019-05-15T10:51:39.699Z,5.20
2019-05-15T10:54:05.075Z,5.20
2019-05-15T10:56:32.481Z,4.37
2019-05-15T10:58:59.949Z,3.87
2019-05-15T11:01:27.366Z,3.63
2019-05-15T11:03:54.809Z,4.10
2019-05-15T11:06:22.237Z,3.73
2019-05-15T11:08:51.608Z,3.83
2019-05-15T11:11:18.365Z,3.60
2019-05-15T11:13:44.511Z,3.73
2019-05-15T11:16:11.935Z,3.37
2019-05-15T11:18:39.714Z,3.53
2019-05-15T11:21:08.241Z,3.30
2019-05-15T11:23:34.218Z,4.13
2019-05-15T11:26:01.664Z,4.37
2019-05-15T11:28:32.140Z,4.00
2019-05-15T11:30:59.184Z,3.80
2019-05-15T11:33:23.922Z,3.90
2019-05-15T11:36:00.381Z,3.50
2019-05-15T11:38:19.515Z,3.60
2019-05-15T11:40:46.226Z,3.33
2019-05-15T11:43:13.632Z,3.70
2019-05-15T11:45:41.068Z,3.23
2019-05-15T11:48:08.998Z,4.10
2019-05-15T11:50:35.901Z,3.30
2019-05-15T11:53:03.298Z,3.57
2019-05-15T11:55:30.744Z,3.90
2019-05-15T11:57:59.383Z,3.40
2019-05-15T12:00:27.060Z,6.37
2019-05-15T12:02:53.020Z,4.20
2019-05-15T12:05:20.430Z,3.37
2019-05-15T12:07:48.075Z,2.90
2019-05-15T12:10:15.272Z,2.67
2019-05-15T12:12:42.719Z,3.07
2019-05-15T12:15:10.137Z,2.93
2019-05-15T12:17:39.126Z,2.20
2019-05-15T12:20:06.841Z,2.60
2019-05-15T12:22:32.448Z,2.17
2019-05-15T12:25:00.950Z,2.20
2019-05-15T12:27:28.275Z,2.97
2019-05-15T12:29:54.723Z,2.03
2019-05-15T12:32:30.080Z,2.00
2019-05-15T12:34:49.717Z,2.40
2019-05-15T12:37:19.037Z,2.70
2019-05-15T12:39:44.397Z,2.30
2019-05-15T13:01:51.243Z,2.33
2019-05-15T13:04:20.008Z,2.73
2019-05-15T13:06:53.197Z,2.37
2019-05-15T13:09:13.514Z,2.40
2019-05-15T13:11:40.928Z,2.20
2019-05-15T13:14:08.356Z,3.03
2019-05-15T13:16:35.802Z,3.00
2019-05-15T13:19:03.220Z,3.37
2019-05-15T13:21:30.623Z,2.87
2019-05-15T13:23:58.640Z,2.17
2019-05-15T13:26:27.146Z,2.30
2019-05-15T13:28:52.907Z,2.83
2019-05-15T13:31:20.365Z,2.00
2019-05-15T13:33:48.134Z,2.37
2019-05-15T13:36:15.227Z,2.80
2019-05-15T13:38:42.633Z,2.10
2019-05-15T13:41:10.087Z,2.70
2019-05-15T13:43:38.551Z,2.37
2019-05-15T13:46:04.911Z,2.40
2019-05-15T13:48:32.338Z,2.77
2019-05-15T13:50:59.740Z,2.70
2019-05-15T13:53:27.927Z,2.33
2019-05-15T13:55:54.820Z,2.37
2019-05-15T13:58:22.229Z,2.50
2019-05-15T14:00:49.667Z,2.03
2019-05-15T14:03:17.110Z,2.40
2019-05-15T14:05:45.229Z,2.03
2019-05-15T14:08:11.929Z,2.23
2019-05-15T14:10:39.361Z,2.50
2019-05-15T14:13:06.769Z,2.20
2019-05-15T14:15:34.212Z,2.30
2019-05-15T14:18:01.611Z,2.30
2019-05-15T14:20:29.054Z,2.50
2019-05-15T14:22:58.648Z,2.17
2019-05-15T14:25:23.874Z,2.50
2019-05-15T14:27:51.295Z,2.47
2019-05-15T14:30:18.724Z,2.07
2019-05-15T14:32:48.248Z,2.07
2019-05-15T14:35:13.544Z,2.23
2019-05-15T14:37:40.981Z,1.93
2019-05-15T14:40:08.859Z,2.40
2019-05-15T14:42:35.805Z,2.23
2019-05-15T14:45:03.260Z,2.10
2019-05-15T14:47:30.683Z,2.33
2019-05-15T14:49:58.485Z,2.20
2019-05-15T14:52:27.891Z,2.30
2019-05-15T14:54:52.944Z,2.23
2019-05-15T14:57:20.380Z,2.40
2019-05-15T14:59:48.801Z,2.27
2019-05-15T15:02:15.222Z,2.43
2019-05-15T15:04:42.659Z,2.53
2019-05-15T15:07:10.092Z,2.40
2019-05-15T15:09:37.538Z,2.43
2019-05-15T15:12:04.945Z,2.03
2019-05-15T15:14:32.353Z,2.47
2019-05-15T15:16:59.797Z,2.20
2019-05-15T15:19:29.315Z,2.20
2019-05-15T15:21:54.649Z,3.03
2019-05-15T15:24:22.091Z,2.40
2019-05-15T15:26:49.519Z,2.60
2019-05-15T15:29:18.919Z,2.40
2019-05-15T15:31:44.370Z,2.77
2019-05-15T15:34:11.820Z,2.50
2019-05-15T15:36:39.236Z,2.50
2019-05-15T15:39:08.339Z,2.27
2019-05-15T15:41:34.093Z,2.43
2019-05-15T15:44:01.499Z,2.63
2019-05-15T15:46:28.950Z,2.60
2019-05-15T15:48:59.078Z,2.37
2019-05-15T15:51:23.770Z,2.27
2019-05-15T15:53:51.188Z,2.47
2019-05-15T15:56:18.682Z,2.10
2019-05-15T15:58:48.569Z,3.00
2019-05-15T16:01:13.453Z,2.90
2019-05-15T16:03:40.889Z,3.10
2019-05-15T16:06:08.283Z,3.00
2019-05-15T16:08:51.653Z,2.77
2019-05-15T16:11:03.122Z,2.67
2019-05-15T16:13:30.563Z,2.60
2019-05-15T16:15:58.013Z,2.80
2019-05-15T16:18:25.440Z,2.60
2019-05-15T16:20:52.874Z,2.70
2019-05-15T16:23:20.329Z,2.50
2019-05-15T16:25:48.996Z,2.63
2019-05-15T16:28:15.184Z,2.47
2019-05-15T16:30:51.160Z,2.90
2019-05-15T16:33:10.091Z,2.47
2019-05-15T16:35:38.052Z,2.77
2019-05-15T16:38:06.036Z,2.87
2019-05-15T16:40:33.415Z,2.90
2019-05-15T16:43:00.818Z,2.80
2019-05-15T16:45:28.839Z,2.67
2019-05-15T16:47:55.675Z,2.70
2019-05-15T16:50:23.103Z,2.60
2019-05-15T16:52:50.495Z,2.50
2019-05-15T16:55:17.929Z,2.60
2019-05-15T16:57:47.798Z,2.57
2019-05-15T17:00:12.788Z,2.70
2019-05-15T17:02:40.303Z,2.60
2019-05-15T17:05:07.607Z,2.53
2019-05-15T17:07:35.036Z,3.00
2019-05-15T17:10:02.453Z,2.90
2019-05-15T17:12:29.887Z,3.27
2019-05-15T17:14:58.282Z,2.73
2019-05-15T17:17:24.712Z,2.80
2019-05-15T17:19:52.122Z,2.80
2019-05-15T17:22:19.561Z,3.10
2019-05-15T17:24:48.836Z,2.80
2019-05-15T17:27:14.408Z,2.93
2019-05-15T17:29:41.839Z,2.70
2019-05-15T17:32:09.242Z,2.87
2019-05-15T17:34:37.980Z,2.80
2019-05-15T17:37:04.106Z,2.50
2019-05-15T17:39:36.666Z,2.63
2019-05-15T17:42:00.170Z,2.80
2019-05-15T17:44:28.492Z,2.50
2019-05-15T17:46:53.792Z,2.60
2019-05-15T17:49:21.233Z,2.47
2019-05-15T17:51:48.957Z,2.50
2019-05-15T17:54:18.108Z,2.67
2019-05-15T17:56:43.478Z,2.43
2019-05-15T17:59:10.909Z,2.60
2019-05-15T18:01:38.542Z,2.47
2019-05-15T18:04:08.230Z,2.33
2019-05-15T18:06:33.202Z,2.70
2019-05-15T18:09:00.610Z,2.60
2019-05-15T18:11:28.042Z,2.33
2019-05-15T18:13:55.463Z,2.80
2019-05-15T18:16:22.886Z,2.60
2019-05-15T18:18:50.283Z,2.90
2019-05-15T18:21:18.412Z,2.50
2019-05-15T18:23:45.129Z,2.70
2019-05-15T18:26:12.592Z,2.63
2019-05-15T18:28:40.018Z,2.50
2019-05-15T18:31:08.947Z,2.70
2019-05-15T18:33:34.867Z,2.50
2019-05-15T18:36:02.310Z,2.80
2019-05-15T18:38:29.722Z,2.50
2019-05-15T18:40:58.298Z,2.60
2019-05-15T18:43:25.032Z,3.10
2019-05-15T18:45:52.458Z,2.93
2019-05-15T18:48:19.861Z,2.90
2019-05-15T18:50:48.175Z,2.77
2019-05-15T18:53:14.676Z,2.73
2019-05-15T18:55:42.108Z,2.83
2019-05-15T18:58:09.518Z,3.00
2019-05-15T19:00:39.701Z,2.80
2019-05-15T19:03:18.315Z,3.20
2019-05-15T19:05:31.782Z,3.40
2019-05-15T19:07:59.242Z,3.10
2019-05-15T19:10:28.196Z,3.23
2019-05-15T19:12:54.073Z,3.00
2019-05-15T19:15:21.475Z,3.10
2019-05-15T19:17:48.915Z,3.27
2019-05-15T19:20:18.802Z,3.50
2019-05-15T19:22:43.786Z,3.00
2019-05-15T19:25:11.203Z,3.57
2019-05-15T19:27:39.409Z,3.60
2019-05-15T19:30:08.147Z,3.30
2019-05-15T19:32:33.504Z,3.50
2019-05-15T19:35:00.916Z,2.87
2019-05-15T19:37:28.781Z,3.30
2019-05-15T19:39:55.860Z,3.50
2019-05-15T19:42:25.847Z,3.00
2019-05-15T19:44:53.281Z,3.20
2019-05-15T19:47:20.690Z,3.10
2019-05-15T19:49:48.436Z,2.77
2019-05-15T19:52:17.766Z,2.70
2019-05-15T19:54:42.973Z,3.43
2019-05-15T19:57:10.369Z,3.40
2019-05-15T19:59:38.147Z,3.40
2019-05-15T20:02:05.220Z,3.63
2019-05-15T20:04:32.625Z,3.70
2019-05-15T20:07:00.053Z,3.40
2019-05-15T20:09:27.830Z,3.80
2019-05-15T20:11:54.904Z,3.27
2019-05-15T20:14:22.321Z,3.23
2019-05-15T20:16:49.729Z,3.43
2019-05-15T20:19:18.111Z,2.90
2019-05-15T20:21:44.935Z,3.50
2019-05-15T20:24:12.348Z,3.50
2019-05-15T20:26:39.788Z,3.20
2019-05-15T20:29:09.164Z,3.20
2019-05-15T20:31:34.614Z,3.40
2019-05-15T20:34:05.803Z,3.07
2019-05-15T20:36:29.900Z,4.57
2019-05-15T20:38:58.839Z,2.97
2019-05-15T20:41:24.679Z,3.60
2019-05-15T20:43:52.119Z,3.30
2019-05-15T20:46:19.553Z,3.50
2019-05-15T20:48:48.735Z,3.53
2019-05-15T20:51:14.357Z,3.40
2019-05-15T20:53:41.789Z,3.63
2019-05-15T20:56:09.197Z,3.60
2019-05-15T20:58:38.299Z,3.20
2019-05-15T21:01:04.026Z,3.30
2019-05-15T21:03:31.488Z,3.63
2019-05-15T21:06:00.850Z,3.83
2019-05-15T21:08:28.725Z,3.47
2019-05-15T21:10:53.744Z,3.37
2019-05-15T21:13:21.152Z,3.53
2019-05-15T21:15:48.628Z,3.97
2019-05-15T21:18:16.009Z,3.83
2019-05-15T21:20:43.443Z,3.87
2019-05-15T21:23:10.855Z,3.33
2019-05-15T21:25:39.212Z,3.60
2019-05-15T21:28:05.696Z,3.40
2019-05-15T21:30:33.137Z,3.20
2019-05-15T21:33:00.573Z,3.53
2019-05-15T21:35:30.386Z,3.40
2019-05-15T21:37:57.430Z,3.40
2019-05-15T21:40:23.191Z,3.80
2019-05-15T21:42:50.599Z,3.60
2019-05-15T21:45:18.456Z,3.23
2019-05-15T21:47:45.422Z,2.93
2019-05-15T21:50:12.833Z,3.53
2019-05-15T21:52:40.268Z,3.37
2019-05-15T21:55:09.308Z,3.23
2019-05-15T21:57:37.266Z,3.50
2019-05-15T22:00:02.556Z,3.20
2019-05-15T22:02:29.962Z,3.30
2019-05-15T22:04:59.664Z,3.50
2019-05-15T22:07:24.944Z,3.50
2019-05-15T22:09:52.352Z,3.40
2019-05-15T22:12:20.711Z,3.57
2019-05-15T22:14:49.176Z,3.47
2019-05-15T22:17:18.677Z,3.33
2019-05-15T22:19:42.984Z,3.60
2019-05-15T22:22:10.418Z,3.37
2019-05-15T22:24:37.927Z,3.50
2019-05-15T22:27:05.256Z,3.40
2019-05-15T22:29:32.705Z,3.37
2019-05-15T22:32:00.105Z,3.37
2019-05-15T22:34:28.492Z,3.50
2019-05-15T22:36:54.949Z,3.80
2019-05-15T22:39:22.388Z,3.33
2019-05-15T22:41:49.829Z,3.67
2019-05-15T22:44:19.198Z,3.57
2019-05-15T22:46:48.721Z,3.83
2019-05-15T22:49:14.474Z,3.33
2019-05-15T22:51:41.887Z,3.33
2019-05-15T22:54:09.318Z,3.60
2019-05-15T22:56:37.839Z,3.90
2019-05-15T22:59:04.166Z,4.13
2019-05-15T23:01:31.610Z,4.20
2019-05-15T23:03:59.010Z,4.20
2019-05-15T23:06:28.234Z,3.97
2019-05-15T23:08:53.864Z,4.13
2019-05-15T23:11:21.270Z,4.13
2019-05-15T23:13:48.727Z,4.03
2019-05-15T23:16:18.267Z,4.00
2019-05-15T23:18:43.584Z,4.27
2019-05-15T23:21:10.995Z,4.10
2019-05-15T23:23:38.423Z,3.67
2019-05-15T23:26:05.826Z,3.40
2019-05-15T23:28:33.252Z,3.73
2019-05-15T23:31:00.684Z,3.73
2019-05-15T23:33:28.331Z,3.77
2019-05-15T23:35:55.498Z,3.37
2019-05-15T23:38:22.930Z,3.40
2019-05-15T23:40:50.395Z,3.57
2019-05-15T23:43:18.959Z,3.37
2019-05-15T23:45:45.247Z,3.60
2019-05-15T23:48:12.685Z,3.57
2019-05-15T23:50:40.106Z,3.60
2019-05-15T23:53:08.701Z,3.27
2019-05-15T23:55:34.936Z,3.70
2019-05-15T23:58:02.362Z,3.90
